Time;durP1;ratioP1;P1;durP2;ratioP2;P2;SDS_P1;SDS_P2;PMS_P1;PMS_P2;Temp;Humidity;BMP_temperature;BMP_pressure;BME280_temperature;BME280_humidity;BME280_pressure;Samples;Min_cycle;Max_cycle;Signal;HPM_P1;HPM_P2
2023/08/26 00:00:21;;;;;;;7.87;5.17;;;;;;;;;;4965945;28;20195;-79
2023/08/26 00:02:47;;;;;;;6.60;5.00;;;;;;;;;;4964842;28;20542;-80
2023/08/26 00:05:13;;;;;;;6.20;5.57;;;;;;;;;;4964848;28;20287;-78
2023/08/26 00:07:39;;;;;;;7.40;6.80;;;;;;;;;;4964465;28;20539;-78
2023/08/26 00:10:05;;;;;;;6.97;6.20;;;;;;;;;;4964344;28;20523;-79
2023/08/26 00:12:31;;;;;;;9.30;6.53;;;;;;;;;;4964769;28;20645;-80
2023/08/26 00:14:57;;;;;;;9.03;7.90;;;;;;;;;;4965330;28;20564;-79
2023/08/26 00:17:23;;;;;;;7.80;7.00;;;;;;;;;;4963929;28;20431;-79
2023/08/26 00:19:50;;;;;;;8.33;7.53;;;;;;;;;;4962663;28;20200;-79
2023/08/26 00:22:16;;;;;;;9.90;7.83;;;;;;;;;;4958757;28;20456;-79
2023/08/26 00:24:42;;;;;;;8.57;6.97;;;;;;;;;;4964840;28;20443;-80
2023/08/26 00:27:08;;;;;;;6.73;6.20;;;;;;;;;;4965673;28;20173;-80
2023/08/26 00:29:34;;;;;;;10.67;7.97;;;;;;;;;;4963464;28;20782;-80
2023/08/26 00:32:00;;;;;;;8.70;7.17;;;;;;;;;;4965047;28;20177;-80
2023/08/26 00:34:26;;;;;;;8.33;7.63;;;;;;;;;;4965077;28;20659;-80
2023/08/26 00:36:52;;;;;;;9.23;6.87;;;;;;;;;;4964218;28;20531;-82
2023/08/26 00:39:18;;;;;;;8.03;6.60;;;;;;;;;;4963913;28;20519;-81
2023/08/26 00:41:44;;;;;;;8.77;7.97;;;;;;;;;;4964258;28;20431;-81
2023/08/26 00:46:39;;;;;;;7.20;6.47;;;;;;;;;;4992478;28;20463;-80
2023/08/26 00:49:05;;;;;;;9.13;7.50;;;;;;;;;;4993524;28;20470;-79
2023/08/26 00:51:31;;;;;;;7.60;6.90;;;;;;;;;;4993703;28;20474;-80
2023/08/26 00:54:04;;;;;;;7.70;6.73;;;;;;;;;;4993515;28;20884;-78
2023/08/26 00:56:33;;;;;;;8.70;7.97;;;;;;;;;;4993772;28;20437;-77
2023/08/26 00:58:59;;;;;;;10.37;8.33;;;;;;;;;;4993740;28;20422;-78
2023/08/26 01:01:26;;;;;;;8.90;8.10;;;;;;;;;;4993629;28;20446;-78
2023/08/26 01:03:52;;;;;;;11.00;8.47;;;;;;;;;;4993547;28;20421;-79
2023/08/26 01:06:18;;;;;;;9.53;8.50;;;;;;;;;;4993494;28;20500;-79
2023/08/26 01:08:44;;;;;;;10.80;9.70;;;;;;;;;;4993210;28;20769;-78
2023/08/26 01:11:13;;;;;;;10.33;8.73;;;;;;;;;;4992840;28;20186;-78
2023/08/26 01:13:54;;;;;;;11.23;9.90;;;;;;;;;;4992969;28;20430;-78
2023/08/26 01:16:21;;;;;;;10.03;9.03;;;;;;;;;;4974065;28;20485;-80
2023/08/26 01:18:47;;;;;;;12.10;10.23;;;;;;;;;;4974043;28;20415;-79
2023/08/26 01:21:14;;;;;;;10.40;9.40;;;;;;;;;;4973971;28;20419;-77
2023/08/26 01:23:41;;;;;;;12.60;11.40;;;;;;;;;;4983980;28;20423;-78
2023/08/26 01:26:07;;;;;;;16.57;13.33;;;;;;;;;;4992547;28;20470;-78
2023/08/26 01:28:33;;;;;;;13.23;12.10;;;;;;;;;;4993253;28;20516;-79
2023/08/26 01:31:04;;;;;;;13.93;12.60;;;;;;;;;;4992796;28;20430;-78
2023/08/26 01:33:33;;;;;;;12.20;10.70;;;;;;;;;;4992249;28;20423;-78
2023/08/26 01:36:01;;;;;;;12.07;10.97;;;;;;;;;;4991716;28;20991;-77
2023/08/26 01:38:28;;;;;;;13.40;11.80;;;;;;;;;;4992783;28;20502;-78
2023/08/26 01:40:56;;;;;;;13.20;11.90;;;;;;;;;;4993208;28;20417;-78
2023/08/26 01:43:22;;;;;;;13.13;11.93;;;;;;;;;;4991928;28;20506;-78
2023/08/26 01:45:48;;;;;;;13.80;12.50;;;;;;;;;;4992765;28;20605;-78
2023/08/26 01:48:14;;;;;;;14.43;13.03;;;;;;;;;;4991824;28;20514;-78
2023/08/26 01:50:40;;;;;;;13.93;12.60;;;;;;;;;;4993124;28;20520;-80
2023/08/26 01:53:06;;;;;;;14.50;13.20;;;;;;;;;;4992698;28;20526;-79
2023/08/26 01:55:32;;;;;;;13.90;12.50;;;;;;;;;;4992564;28;20222;-78
2023/08/26 01:57:58;;;;;;;16.67;14.43;;;;;;;;;;4996008;28;20407;-79
2023/08/26 02:00:24;;;;;;;16.03;13.40;;;;;;;;;;4991853;28;20433;-78
2023/08/26 02:02:50;;;;;;;15.13;13.63;;;;;;;;;;4993006;28;20254;-78
2023/08/26 02:05:16;;;;;;;16.33;14.27;;;;;;;;;;4992898;28;20464;-78
2023/08/26 02:07:42;;;;;;;15.97;14.47;;;;;;;;;;4992526;28;20644;-79
2023/08/26 02:10:09;;;;;;;15.83;13.70;;;;;;;;;;4992656;28;20414;-79
2023/08/26 02:12:35;;;;;;;15.83;14.27;;;;;;;;;;4992821;28;20411;-79
2023/08/26 02:15:01;;;;;;;15.90;14.30;;;;;;;;;;4992369;28;20565;-79
2023/08/26 02:17:27;;;;;;;17.47;15.67;;;;;;;;;;4975242;28;20990;-78
2023/08/26 02:19:53;;;;;;;16.40;14.67;;;;;;;;;;4975165;28;20525;-77
2023/08/26 02:22:19;;;;;;;17.03;14.90;;;;;;;;;;4991269;28;20509;-80
2023/08/26 02:24:46;;;;;;;15.40;14.00;;;;;;;;;;4992881;28;20512;-81
2023/08/26 02:27:12;;;;;;;16.57;14.77;;;;;;;;;;4992825;28;20428;-77
2023/08/26 02:29:38;;;;;;;17.80;16.00;;;;;;;;;;4992783;28;20418;-78
2023/08/26 02:32:16;;;;;;;18.23;15.30;;;;;;;;;;4992165;28;20737;-78
2023/08/26 02:34:42;;;;;;;15.30;13.90;;;;;;;;;;4992805;28;20646;-78
2023/08/26 02:37:07;;;;;;;15.87;14.37;;;;;;;;;;4993294;28;20456;-79
2023/08/26 02:39:34;;;;;;;16.00;14.30;;;;;;;;;;4996244;28;20183;-77
2023/08/26 02:42:00;;;;;;;17.03;14.67;;;;;;;;;;4996142;28;20183;-78
2023/08/26 02:44:26;;;;;;;16.80;14.93;;;;;;;;;;4995762;28;20933;-77
2023/08/26 02:46:52;;;;;;;19.33;17.33;;;;;;;;;;4996281;28;20368;-78
2023/08/26 02:49:24;;;;;;;16.47;14.77;;;;;;;;;;4996056;28;20888;-78
2023/08/26 02:51:49;;;;;;;16.90;15.10;;;;;;;;;;4995574;28;20206;-78
2023/08/26 02:54:15;;;;;;;16.67;14.97;;;;;;;;;;4995790;28;20431;-79
2023/08/26 02:56:41;;;;;;;16.57;14.70;;;;;;;;;;4995973;28;20179;-79
2023/08/26 02:59:07;;;;;;;15.00;13.50;;;;;;;;;;4995953;28;20632;-78
2023/08/26 03:01:33;;;;;;;18.17;16.37;;;;;;;;;;4995819;28;20237;-78
2023/08/26 03:03:59;;;;;;;16.70;14.90;;;;;;;;;;4994481;28;20527;-79
2023/08/26 03:06:25;;;;;;;16.77;15.07;;;;;;;;;;4995548;28;20209;-79
2023/08/26 03:08:53;;;;;;;16.90;15.10;;;;;;;;;;4995266;28;20190;-77
2023/08/26 03:11:19;;;;;;;16.37;13.37;;;;;;;;;;4995622;28;20191;-78
2023/08/26 03:13:45;;;;;;;15.03;13.63;;;;;;;;;;4995545;28;20476;-78
2023/08/26 03:16:11;;;;;;;14.97;13.47;;;;;;;;;;4995175;28;20218;-79
2023/08/26 03:18:40;;;;;;;16.37;14.87;;;;;;;;;;4995056;28;20190;-78
2023/08/26 03:21:07;;;;;;;16.17;14.47;;;;;;;;;;4995638;28;20398;-77
2023/08/26 03:23:34;;;;;;;15.27;13.70;;;;;;;;;;4994802;28;20437;-79
2023/08/26 03:26:00;;;;;;;15.03;12.93;;;;;;;;;;4995264;28;20398;-77
2023/08/26 03:28:26;;;;;;;16.00;14.07;;;;;;;;;;4995398;28;20420;-79
2023/08/26 03:30:52;;;;;;;16.17;14.57;;;;;;;;;;4994155;28;20414;-77
2023/08/26 03:33:18;;;;;;;15.03;13.47;;;;;;;;;;4995321;28;20467;-78
2023/08/26 03:35:44;;;;;;;16.00;14.40;;;;;;;;;;4993787;28;20485;-78
2023/08/26 03:38:16;;;;;;;17.60;16.00;;;;;;;;;;4994634;28;20404;-78
2023/08/26 03:40:42;;;;;;;15.97;14.37;;;;;;;;;;4995228;28;20439;-78
2023/08/26 03:43:08;;;;;;;16.00;14.17;;;;;;;;;;4995031;28;20410;-78
2023/08/26 03:45:33;;;;;;;16.47;14.80;;;;;;;;;;4995026;28;20230;-78
2023/08/26 03:47:59;;;;;;;15.43;13.20;;;;;;;;;;4993643;28;20425;-77
2023/08/26 03:50:25;;;;;;;15.60;14.00;;;;;;;;;;4994248;28;20420;-78
2023/08/26 03:52:51;;;;;;;13.97;12.53;;;;;;;;;;4994550;28;20532;-79
2023/08/26 03:55:17;;;;;;;14.80;13.40;;;;;;;;;;4993508;28;20686;-77
2023/08/26 03:57:43;;;;;;;14.63;13.17;;;;;;;;;;4994514;28;20491;-78
2023/08/26 04:00:09;;;;;;;18.03;14.60;;;;;;;;;;4994814;28;20173;-79
2023/08/26 04:02:35;;;;;;;20.83;18.63;;;;;;;;;;4994739;28;20596;-78
2023/08/26 04:05:01;;;;;;;20.07;17.90;;;;;;;;;;4994621;28;21029;-79
2023/08/26 04:07:28;;;;;;;19.70;16.60;;;;;;;;;;4994448;28;20412;-78
2023/08/26 04:09:54;;;;;;;21.97;19.77;;;;;;;;;;4994215;28;20187;-78
2023/08/26 04:12:19;;;;;;;19.53;17.50;;;;;;;;;;4993243;28;20910;-79
2023/08/26 04:14:45;;;;;;;20.73;18.50;;;;;;;;;;4994367;28;20463;-79
2023/08/26 04:17:12;;;;;;;20.63;18.53;;;;;;;;;;4994368;28;20511;-77
2023/08/26 04:19:38;;;;;;;21.67;18.77;;;;;;;;;;4994444;28;20541;-77
2023/08/26 04:22:04;;;;;;;22.43;19.23;;;;;;;;;;4992715;28;20447;-77
2023/08/26 04:24:33;;;;;;;21.23;19.07;;;;;;;;;;4994315;28;20479;-77
2023/08/26 04:26:59;;;;;;;22.87;20.47;;;;;;;;;;4994331;28;20456;-78
2023/08/26 04:29:25;;;;;;;24.63;18.73;;;;;;;;;;4994138;28;20422;-77
2023/08/26 04:31:54;;;;;;;23.43;20.93;;;;;;;;;;4993993;28;20973;-77
2023/08/26 04:34:19;;;;;;;22.53;20.07;;;;;;;;;;4992737;28;20435;-77
2023/08/26 04:36:45;;;;;;;23.00;20.07;;;;;;;;;;4993769;28;20497;-78
2023/08/26 04:39:11;;;;;;;23.10;19.50;;;;;;;;;;4994136;28;20181;-77
2023/08/26 04:41:40;;;;;;;23.20;20.80;;;;;;;;;;4992910;28;20179;-77
2023/08/26 04:44:07;;;;;;;22.07;19.77;;;;;;;;;;4993873;28;20635;-79
2023/08/26 04:46:33;;;;;;;21.33;18.73;;;;;;;;;;4993799;28;20472;-79
2023/08/26 04:48:59;;;;;;;25.50;20.90;;;;;;;;;;4993833;28;20405;-78
2023/08/26 04:51:25;;;;;;;24.07;21.67;;;;;;;;;;4992341;28;20867;-78
2023/08/26 04:53:51;;;;;;;27.60;22.70;;;;;;;;;;4992419;28;20883;-78
2023/08/26 04:56:17;;;;;;;28.73;24.33;;;;;;;;;;4993562;28;20226;-77
2023/08/26 04:58:43;;;;;;;30.60;25.40;;;;;;;;;;4993679;28;20412;-78
2023/08/26 05:01:09;;;;;;;25.83;22.83;;;;;;;;;;4991554;28;20187;-78
2023/08/26 05:03:35;;;;;;;29.30;25.07;;;;;;;;;;4989479;28;20430;-78
2023/08/26 05:06:01;;;;;;;26.80;23.10;;;;;;;;;;4984461;28;20667;-78
2023/08/26 05:08:27;;;;;;;25.03;22.40;;;;;;;;;;4982515;28;20497;-77
2023/08/26 05:10:53;;;;;;;24.57;21.80;;;;;;;;;;4984613;28;20314;-78
2023/08/26 05:13:18;;;;;;;25.93;23.17;;;;;;;;;;4982395;28;20533;-78
2023/08/26 05:15:44;;;;;;;27.00;23.13;;;;;;;;;;4982947;28;20252;-77
2023/08/26 05:18:10;;;;;;;23.23;20.17;;;;;;;;;;4985641;28;20426;-78
2023/08/26 05:20:36;;;;;;;25.37;20.97;;;;;;;;;;4983695;28;20259;-77
2023/08/26 05:23:02;;;;;;;25.37;21.40;;;;;;;;;;4983311;28;20416;-77
2023/08/26 05:25:29;;;;;;;28.73;21.20;;;;;;;;;;4982533;28;20428;-78
2023/08/26 05:27:54;;;;;;;22.77;19.63;;;;;;;;;;4984117;28;20480;-77
2023/08/26 05:30:20;;;;;;;22.67;18.60;;;;;;;;;;4983524;28;20421;-77
2023/08/26 05:32:46;;;;;;;23.97;19.20;;;;;;;;;;4982484;28;20605;-77
2023/08/26 05:35:12;;;;;;;23.77;18.60;;;;;;;;;;4988850;28;20239;-77
2023/08/26 05:37:43;;;;;;;25.53;20.43;;;;;;;;;;4987190;28;20194;-76
2023/08/26 05:40:09;;;;;;;25.40;21.60;;;;;;;;;;4984337;28;20183;-76
2023/08/26 05:42:35;;;;;;;23.80;19.20;;;;;;;;;;4982663;28;20804;-77
2023/08/26 05:45:01;;;;;;;26.17;21.53;;;;;;;;;;4982939;28;20511;-77
2023/08/26 05:47:27;;;;;;;28.13;22.90;;;;;;;;;;4984303;28;20656;-76
2023/08/26 05:49:53;;;;;;;24.37;21.77;;;;;;;;;;4982190;28;20408;-77
2023/08/26 05:52:19;;;;;;;26.90;21.70;;;;;;;;;;4983111;28;20179;-75
2023/08/26 05:54:44;;;;;;;26.50;22.77;;;;;;;;;;4983634;28;20822;-78
2023/08/26 05:57:11;;;;;;;30.47;23.00;;;;;;;;;;4982047;28;20232;-77
2023/08/26 05:59:37;;;;;;;28.13;22.30;;;;;;;;;;4983679;28;20164;-77
2023/08/26 06:02:03;;;;;;;28.40;22.67;;;;;;;;;;4983574;28;20420;-76
2023/08/26 06:04:29;;;;;;;27.30;23.37;;;;;;;;;;4982068;28;20415;-77
2023/08/26 06:06:57;;;;;;;26.53;20.43;;;;;;;;;;4984056;28;20180;-79
2023/08/26 06:09:23;;;;;;;25.33;21.90;;;;;;;;;;4983235;28;20168;-81
2023/08/26 06:11:49;;;;;;;21.87;19.57;;;;;;;;;;4982229;28;20482;-82
2023/08/26 06:14:15;;;;;;;27.20;21.27;;;;;;;;;;4987520;28;20172;-81
2023/08/26 06:16:40;;;;;;;26.40;20.33;;;;;;;;;;4986936;28;20243;-80
2023/08/26 06:19:06;;;;;;;27.90;20.87;;;;;;;;;;4978351;28;20425;-80
2023/08/26 06:21:32;;;;;;;23.33;18.83;;;;;;;;;;4979075;28;20197;-79
2023/08/26 06:23:58;;;;;;;21.40;16.37;;;;;;;;;;4992179;28;20451;-80
2023/08/26 06:26:24;;;;;;;21.10;17.40;;;;;;;;;;4987240;28;20417;-80
2023/08/26 06:28:50;;;;;;;16.90;15.10;;;;;;;;;;4986722;28;20554;-80
2023/08/26 06:31:16;;;;;;;19.30;15.50;;;;;;;;;;4986330;28;20186;-79
2023/08/26 06:33:42;;;;;;;16.70;15.03;;;;;;;;;;4987288;28;20178;-80
2023/08/26 06:36:08;;;;;;;17.57;14.93;;;;;;;;;;4986021;28;20546;-80
2023/08/26 06:38:34;;;;;;;18.13;16.33;;;;;;;;;;4985673;28;20405;-80
2023/08/26 06:41:00;;;;;;;16.47;14.80;;;;;;;;;;4987257;28;20413;-79
2023/08/26 06:43:28;;;;;;;14.67;12.70;;;;;;;;;;4986023;28;20174;-80
2023/08/26 06:45:54;;;;;;;16.60;13.10;;;;;;;;;;4992122;28;20473;-81
2023/08/26 06:48:20;;;;;;;16.33;14.17;;;;;;;;;;4987261;28;20413;-81
2023/08/26 06:50:50;;;;;;;16.40;14.80;;;;;;;;;;4985563;28;20422;-78
2023/08/26 06:53:21;;;;;;;14.07;12.60;;;;;;;;;;4995043;28;20183;-79
2023/08/26 06:55:48;;;;;;;14.13;11.87;;;;;;;;;;4996141;28;20873;-79
2023/08/26 06:58:14;;;;;;;11.50;10.30;;;;;;;;;;4996110;28;20508;-79
2023/08/26 07:00:41;;;;;;;11.60;10.43;;;;;;;;;;5000991;28;20454;-78
2023/08/26 07:03:08;;;;;;;10.30;8.90;;;;;;;;;;4996057;28;20191;-79
2023/08/26 07:05:33;;;;;;;11.13;9.00;;;;;;;;;;4996034;28;20507;-78
2023/08/26 07:07:59;;;;;;;12.13;8.80;;;;;;;;;;4995907;28;20445;-78
2023/08/26 07:10:25;;;;;;;13.03;9.00;;;;;;;;;;4995733;28;20181;-77
2023/08/26 07:12:51;;;;;;;10.40;7.80;;;;;;;;;;4995899;28;20757;-78
2023/08/26 07:15:17;;;;;;;7.70;6.60;;;;;;;;;;4995743;28;20667;-78
2023/08/26 07:17:43;;;;;;;8.20;5.60;;;;;;;;;;4995812;28;20182;-78
2023/08/26 07:20:10;;;;;;;7.73;5.00;;;;;;;;;;4995711;28;20179;-78
2023/08/26 07:22:36;;;;;;;6.33;5.33;;;;;;;;;;4995400;28;20172;-78
2023/08/26 07:25:02;;;;;;;5.47;4.97;;;;;;;;;;4994687;28;20422;-79
2023/08/26 07:27:28;;;;;;;7.33;4.10;;;;;;;;;;4995552;28;20168;-79
2023/08/26 07:29:54;;;;;;;7.90;4.50;;;;;;;;;;4995519;28;20415;-79
2023/08/26 07:32:20;;;;;;;4.67;3.87;;;;;;;;;;4995621;28;20409;-80
2023/08/26 07:34:46;;;;;;;5.93;4.30;;;;;;;;;;4995361;28;20463;-80
2023/08/26 07:37:12;;;;;;;5.70;4.00;;;;;;;;;;4994962;28;20418;-80
2023/08/26 07:39:37;;;;;;;4.57;4.13;;;;;;;;;;4994639;28;20180;-80
2023/08/26 07:42:04;;;;;;;4.13;3.70;;;;;;;;;;4994787;28;20253;-79
2023/08/26 07:44:30;;;;;;;5.33;3.40;;;;;;;;;;4995220;28;20900;-80
2023/08/26 07:46:56;;;;;;;8.43;4.70;;;;;;;;;;4995245;28;20418;-80
2023/08/26 07:49:22;;;;;;;4.80;4.37;;;;;;;;;;4995258;28;20175;-80
2023/08/26 07:51:48;;;;;;;5.87;4.47;;;;;;;;;;4994962;28;20407;-79
2023/08/26 07:54:14;;;;;;;6.30;4.97;;;;;;;;;;4995253;28;20234;-78
2023/08/26 07:56:40;;;;;;;5.90;5.00;;;;;;;;;;4995079;28;20672;-78
2023/08/26 07:59:06;;;;;;;5.43;3.90;;;;;;;;;;4995135;28;20240;-78
2023/08/26 08:01:32;;;;;;;5.50;3.90;;;;;;;;;;4995093;28;20804;-78
2023/08/26 08:03:58;;;;;;;6.97;4.33;;;;;;;;;;4995005;28;20415;-78
2023/08/26 08:06:24;;;;;;;5.57;3.70;;;;;;;;;;4994351;28;20195;-77
2023/08/26 08:08:50;;;;;;;5.33;4.10;;;;;;;;;;4994936;28;20172;-78
2023/08/26 08:11:16;;;;;;;4.30;3.87;;;;;;;;;;4994914;28;20172;-77
2023/08/26 08:13:42;;;;;;;5.33;3.20;;;;;;;;;;4994844;28;20179;-78
2023/08/26 08:16:08;;;;;;;9.63;4.17;;;;;;;;;;4994731;28;20691;-77
2023/08/26 08:18:34;;;;;;;6.30;3.60;;;;;;;;;;4991556;28;20264;-77
2023/08/26 08:21:00;;;;;;;4.67;3.00;;;;;;;;;;4984272;28;20415;-77
2023/08/26 08:23:26;;;;;;;3.40;2.67;;;;;;;;;;4984877;28;20502;-77
2023/08/26 08:25:52;;;;;;;3.50;2.90;;;;;;;;;;4983436;28;20184;-77
2023/08/26 08:28:18;;;;;;;3.27;2.97;;;;;;;;;;4984800;28;20965;-77
2023/08/26 08:30:43;;;;;;;3.83;2.47;;;;;;;;;;4991487;28;20268;-77
2023/08/26 08:33:09;;;;;;;3.70;3.03;;;;;;;;;;4983260;28;20310;-77
2023/08/26 08:35:35;;;;;;;3.70;3.37;;;;;;;;;;4984504;28;20675;-77
2023/08/26 08:38:02;;;;;;;4.80;3.10;;;;;;;;;;4984395;28;20178;-77
2023/08/26 08:40:28;;;;;;;5.33;3.60;;;;;;;;;;4983291;28;20170;-77
2023/08/26 08:42:55;;;;;;;5.17;3.67;;;;;;;;;;4985063;28;20424;-77
2023/08/26 08:45:21;;;;;;;5.57;2.60;;;;;;;;;;4983903;28;20554;-77
2023/08/26 08:47:48;;;;;;;3.90;2.83;;;;;;;;;;4983138;28;20424;-77
2023/08/26 08:50:15;;;;;;;6.70;2.97;;;;;;;;;;4985222;28;20414;-77
2023/08/26 08:52:42;;;;;;;6.03;3.20;;;;;;;;;;4983652;28;20934;-77
2023/08/26 08:55:08;;;;;;;3.50;2.50;;;;;;;;;;4982935;28;20460;-77
2023/08/26 08:57:35;;;;;;;4.23;2.70;;;;;;;;;;4984709;28;20431;-77
2023/08/26 09:00:03;;;;;;;3.30;2.43;;;;;;;;;;4983876;28;20413;-77
2023/08/26 09:02:29;;;;;;;4.03;2.57;;;;;;;;;;4982792;28;20426;-77
2023/08/26 09:04:55;;;;;;;5.10;2.20;;;;;;;;;;4979557;28;20525;-77
2023/08/26 09:07:21;;;;;;;4.27;2.10;;;;;;;;;;4974258;28;20531;-77
2023/08/26 09:09:47;;;;;;;4.80;2.33;;;;;;;;;;4974532;28;20443;-78
2023/08/26 09:12:13;;;;;;;3.27;2.97;;;;;;;;;;4981663;28;20467;-78
2023/08/26 09:14:39;;;;;;;4.33;3.33;;;;;;;;;;4993666;28;20456;-78
2023/08/26 09:17:17;;;;;;;5.13;3.60;;;;;;;;;;4993740;28;20450;-77
2023/08/26 09:19:58;;;;;;;3.50;2.53;;;;;;;;;;4975739;28;20180;-78
2023/08/26 09:22:29;;;;;;;5.67;3.37;;;;;;;;;;4973909;28;20440;-78
2023/08/26 09:24:55;;;;;;;6.73;2.60;;;;;;;;;;4986306;28;21070;-79
2023/08/26 09:27:24;;;;;;;6.67;3.03;;;;;;;;;;4993649;28;20410;-78
2023/08/26 09:29:51;;;;;;;9.37;4.23;;;;;;;;;;4993658;28;20425;-79
2023/08/26 09:32:30;;;;;;;7.60;4.33;;;;;;;;;;4993574;28;20960;-79
2023/08/26 09:35:08;;;;;;;4.23;2.27;;;;;;;;;;4993414;28;20469;-78
2023/08/26 09:37:33;;;;;;;4.10;2.80;;;;;;;;;;4993401;28;20445;-78
2023/08/26 09:39:59;;;;;;;6.53;2.90;;;;;;;;;;4993499;28;20838;-78
2023/08/26 09:42:26;;;;;;;3.77;2.63;;;;;;;;;;4993531;28;20174;-79
2023/08/26 09:44:55;;;;;;;5.37;3.20;;;;;;;;;;4988296;28;20310;-78
2023/08/26 09:47:21;;;;;;;3.70;3.40;;;;;;;;;;4989472;28;20416;-78
2023/08/26 09:49:49;;;;;;;5.00;3.67;;;;;;;;;;4986518;28;20416;-78
2023/08/26 09:52:15;;;;;;;6.40;4.13;;;;;;;;;;4992701;28;20426;-79
2023/08/26 09:54:43;;;;;;;6.00;3.40;;;;;;;;;;4991221;28;20458;-79
2023/08/26 09:57:09;;;;;;;5.20;4.00;;;;;;;;;;4996993;28;20182;-79
2023/08/26 09:59:38;;;;;;;6.23;4.10;;;;;;;;;;4997014;28;20436;-79
2023/08/26 10:02:10;;;;;;;5.13;3.70;;;;;;;;;;4996933;28;20419;-79
2023/08/26 10:04:37;;;;;;;4.50;4.10;;;;;;;;;;4996997;28;20409;-79
2023/08/26 10:07:04;;;;;;;3.70;3.40;;;;;;;;;;4996603;28;20509;-78
2023/08/26 10:09:53;;;;;;;6.90;3.63;;;;;;;;;;4996540;28;20421;-78
2023/08/26 10:12:21;;;;;;;4.80;3.57;;;;;;;;;;4991364;28;20432;-78
2023/08/26 10:14:50;;;;;;;4.30;3.00;;;;;;;;;;4995575;28;20458;-79
2023/08/26 10:17:18;;;;;;;4.80;3.60;;;;;;;;;;4996463;28;20439;-79
2023/08/26 10:19:44;;;;;;;3.67;3.13;;;;;;;;;;4996746;28;20404;-79
2023/08/26 10:22:10;;;;;;;4.40;2.43;;;;;;;;;;4995140;28;20429;-79
2023/08/26 10:24:44;;;;;;;4.03;2.80;;;;;;;;;;4996642;28;20423;-78
2023/08/26 10:27:10;;;;;;;3.43;2.23;;;;;;;;;;4995454;28;20426;-79
2023/08/26 10:29:36;;;;;;;4.20;2.17;;;;;;;;;;4996670;28;20424;-78
2023/08/26 10:32:18;;;;;;;3.03;2.03;;;;;;;;;;4996540;28;20232;-79
2023/08/26 10:34:54;;;;;;;3.77;2.53;;;;;;;;;;4996384;28;20453;-78
2023/08/26 10:37:20;;;;;;;3.90;2.20;;;;;;;;;;4996017;28;20423;-79
2023/08/26 10:39:46;;;;;;;4.43;2.90;;;;;;;;;;4995024;28;20919;-79
2023/08/26 10:42:18;;;;;;;3.70;2.10;;;;;;;;;;4996351;28;20516;-79
2023/08/26 10:44:54;;;;;;;3.77;2.47;;;;;;;;;;4996063;28;20469;-78
2023/08/26 10:47:38;;;;;;;3.73;2.33;;;;;;;;;;4996312;28;20409;-79
2023/08/26 10:50:14;;;;;;;3.50;2.47;;;;;;;;;;4995789;28;20403;-78
2023/08/26 10:52:41;;;;;;;2.47;1.77;;;;;;;;;;4995938;28;20826;-78
2023/08/26 10:55:40;;;;;;;3.50;2.70;;;;;;;;;;4995874;28;20458;-79
2023/08/26 10:58:16;;;;;;;2.83;2.53;;;;;;;;;;4963097;28;20477;-78
2023/08/26 11:00:43;;;;;;;4.60;2.53;;;;;;;;;;4995905;28;20446;-79
2023/08/26 11:03:13;;;;;;;6.13;2.40;;;;;;;;;;4995746;28;20410;-78
2023/08/26 11:05:41;;;;;;;3.10;2.80;;;;;;;;;;4995486;28;20449;-79
2023/08/26 11:08:07;;;;;;;3.43;2.07;;;;;;;;;;4994511;28;20423;-79
2023/08/26 11:10:35;;;;;;;5.03;2.57;;;;;;;;;;4995879;28;20425;-79
2023/08/26 11:13:01;;;;;;;4.20;1.97;;;;;;;;;;4995761;28;20935;-79
2023/08/26 11:15:46;;;;;;;4.00;1.37;;;;;;;;;;4995468;28;20497;-79
2023/08/26 11:18:12;;;;;;;4.97;1.60;;;;;;;;;;4995668;28;20417;-78
2023/08/26 11:20:38;;;;;;;5.23;1.93;;;;;;;;;;4995111;28;20403;-79
2023/08/26 11:23:05;;;;;;;2.37;1.10;;;;;;;;;;4995516;28;20415;-79
2023/08/26 11:25:33;;;;;;;2.67;1.17;;;;;;;;;;4995426;28;20556;-78
2023/08/26 11:28:07;;;;;;;1.80;0.97;;;;;;;;;;4994063;28;20473;-79
2023/08/26 11:30:43;;;;;;;3.13;1.07;;;;;;;;;;4995390;28;20414;-78
2023/08/26 11:33:15;;;;;;;2.30;1.30;;;;;;;;;;4994143;28;20825;-78
2023/08/26 11:35:41;;;;;;;3.10;1.30;;;;;;;;;;4995068;28;20897;-79
2023/08/26 11:38:07;;;;;;;2.10;0.80;;;;;;;;;;4995343;28;20415;-79
2023/08/26 11:40:34;;;;;;;2.00;0.80;;;;;;;;;;4995227;28;20514;-79
2023/08/26 11:43:04;;;;;;;2.53;0.60;;;;;;;;;;4993915;28;20429;-78
2023/08/26 11:45:30;;;;;;;2.33;0.67;;;;;;;;;;4995096;28;20462;-78
2023/08/26 11:47:56;;;;;;;9.03;1.20;;;;;;;;;;4995092;28;20549;-78
2023/08/26 11:50:22;;;;;;;1.60;0.63;;;;;;;;;;4993799;28;20589;-79
2023/08/26 11:52:48;;;;;;;2.60;0.57;;;;;;;;;;4994853;28;20180;-79
2023/08/26 11:55:14;;;;;;;1.97;0.33;;;;;;;;;;4977459;28;20265;-78
2023/08/26 11:57:40;;;;;;;1.10;0.40;;;;;;;;;;4994983;28;20543;-79
2023/08/26 12:00:13;;;;;;;1.30;0.33;;;;;;;;;;4995296;28;20498;-78
2023/08/26 12:02:43;;;;;;;1.30;0.30;;;;;;;;;;4994768;28;20410;-78
2023/08/26 12:05:09;;;;;;;1.37;0.50;;;;;;;;;;4994484;28;20415;-78
2023/08/26 12:07:35;;;;;;;1.23;0.40;;;;;;;;;;4994756;28;20755;-79
2023/08/26 12:10:11;;;;;;;3.80;0.73;;;;;;;;;;4994164;28;20419;-79
2023/08/26 12:12:38;;;;;;;2.53;0.50;;;;;;;;;;4994713;28;20921;-77
2023/08/26 12:15:11;;;;;;;1.70;0.50;;;;;;;;;;4994155;28;20521;-79
2023/08/26 12:17:51;;;;;;;1.63;0.43;;;;;;;;;;4994600;28;20415;-78
2023/08/26 12:20:24;;;;;;;2.80;0.50;;;;;;;;;;4994133;28;20414;-77
2023/08/26 12:22:50;;;;;;;2.97;0.40;;;;;;;;;;4994440;28;20418;-78
2023/08/26 12:25:17;;;;;;;1.63;0.30;;;;;;;;;;4994125;28;20411;-78
2023/08/26 12:27:43;;;;;;;2.43;1.20;;;;;;;;;;4994157;28;20418;-79
2023/08/26 12:30:09;;;;;;;3.83;2.27;;;;;;;;;;4976727;28;20427;-79
2023/08/26 12:32:35;;;;;;;4.40;2.20;;;;;;;;;;4994149;28;20198;-79
2023/08/26 12:35:01;;;;;;;2.80;1.90;;;;;;;;;;4993795;28;20465;-79
2023/08/26 12:37:27;;;;;;;4.33;1.40;;;;;;;;;;4994125;28;20426;-79
2023/08/26 12:39:53;;;;;;;2.70;1.10;;;;;;;;;;4994150;28;20775;-79
2023/08/26 12:42:19;;;;;;;3.60;1.93;;;;;;;;;;4994101;28;20691;-79
2023/08/26 12:44:45;;;;;;;2.60;0.77;;;;;;;;;;4993735;28;20216;-79
2023/08/26 12:47:11;;;;;;;3.87;1.27;;;;;;;;;;4994026;28;20676;-79
2023/08/26 12:49:37;;;;;;;2.90;1.20;;;;;;;;;;4993839;28;20276;-79
2023/08/26 12:52:03;;;;;;;3.80;1.20;;;;;;;;;;4993993;28;20869;-79
2023/08/26 12:54:29;;;;;;;4.33;1.97;;;;;;;;;;4993862;28;20665;-79
2023/08/26 12:56:55;;;;;;;4.73;1.67;;;;;;;;;;4993737;28;20438;-80
2023/08/26 12:59:21;;;;;;;3.30;1.37;;;;;;;;;;4993833;28;20172;-79
2023/08/26 13:01:48;;;;;;;3.00;1.63;;;;;;;;;;4993549;28;20182;-80
2023/08/26 13:04:14;;;;;;;4.00;1.50;;;;;;;;;;4993779;28;20414;-80
2023/08/26 13:06:40;;;;;;;3.33;1.10;;;;;;;;;;4993342;28;20410;-79
2023/08/26 13:09:05;;;;;;;3.33;1.23;;;;;;;;;;4993712;28;20183;-80
2023/08/26 13:11:31;;;;;;;3.67;2.00;;;;;;;;;;4993669;28;20179;-79
2023/08/26 13:13:57;;;;;;;3.40;1.00;;;;;;;;;;4993604;28;20179;-80
2023/08/26 13:16:23;;;;;;;2.97;1.23;;;;;;;;;;4975904;28;20218;-80
2023/08/26 13:18:49;;;;;;;2.20;1.47;;;;;;;;;;4993351;28;20403;-80
2023/08/26 13:21:15;;;;;;;3.13;1.50;;;;;;;;;;4992586;28;20183;-80
2023/08/26 13:23:41;;;;;;;2.87;2.10;;;;;;;;;;4993082;28;20176;-80
2023/08/26 13:26:07;;;;;;;2.27;1.60;;;;;;;;;;4993445;28;20179;-80
2023/08/26 13:28:33;;;;;;;2.13;1.50;;;;;;;;;;4975910;28;20418;-79
2023/08/26 13:31:02;;;;;;;2.33;2.03;;;;;;;;;;4993197;28;20569;-79
2023/08/26 13:33:28;;;;;;;2.70;1.60;;;;;;;;;;4975896;28;20274;-78
2023/08/26 13:35:54;;;;;;;2.00;1.20;;;;;;;;;;4992888;28;20569;-80
2023/08/26 13:38:19;;;;;;;2.90;1.40;;;;;;;;;;4993288;28;20207;-80
2023/08/26 13:40:45;;;;;;;2.87;1.80;;;;;;;;;;4993127;28;20255;-79
2023/08/26 13:43:11;;;;;;;1.83;1.37;;;;;;;;;;4993174;28;20178;-79
2023/08/26 13:45:37;;;;;;;3.83;2.10;;;;;;;;;;4992933;28;20594;-79
2023/08/26 13:48:03;;;;;;;2.80;1.83;;;;;;;;;;4993115;28;20171;-79
2023/08/26 13:50:29;;;;;;;3.00;2.10;;;;;;;;;;4992839;28;20182;-79
2023/08/26 13:52:55;;;;;;;5.47;2.27;;;;;;;;;;4992769;28;20529;-79
2023/08/26 13:55:21;;;;;;;4.70;2.70;;;;;;;;;;4993009;28;21038;-79
2023/08/26 13:57:48;;;;;;;5.90;2.90;;;;;;;;;;4993073;28;20440;-79
2023/08/26 14:00:17;;;;;;;6.10;3.57;;;;;;;;;;4993138;28;20411;-79
2023/08/26 14:02:43;;;;;;;3.97;3.10;;;;;;;;;;4992858;28;20811;-79
2023/08/26 14:05:11;;;;;;;4.90;3.17;;;;;;;;;;4991549;28;20431;-78
2023/08/26 14:07:37;;;;;;;4.57;3.57;;;;;;;;;;4992955;28;20176;-79
2023/08/26 14:10:02;;;;;;;5.30;3.63;;;;;;;;;;4992929;28;20914;-79
2023/08/26 14:12:28;;;;;;;5.10;3.90;;;;;;;;;;4992967;28;20207;-79
2023/08/26 14:14:54;;;;;;;5.13;3.33;;;;;;;;;;4992722;28;20473;-79
2023/08/26 14:17:20;;;;;;;4.30;3.70;;;;;;;;;;4992820;28;20635;-80
2023/08/26 14:19:46;;;;;;;6.50;3.80;;;;;;;;;;4992624;28;20180;-79
2023/08/26 14:22:12;;;;;;;6.10;4.47;;;;;;;;;;4992920;28;20262;-78
2023/08/26 14:24:38;;;;;;;5.93;4.43;;;;;;;;;;4992786;28;20183;-79
2023/08/26 14:27:04;;;;;;;5.40;3.73;;;;;;;;;;4991455;28;20185;-79
2023/08/26 14:29:30;;;;;;;3.80;2.30;;;;;;;;;;4992784;28;20427;-79
2023/08/26 14:31:59;;;;;;;4.10;2.80;;;;;;;;;;4992916;28;20415;-80
2023/08/26 14:34:24;;;;;;;3.20;2.20;;;;;;;;;;4994830;28;20206;-79